TimeCST,TemperatureF,Dew PointF,Humidity,Sea Level PressureIn,VisibilityMPH,Wind Direction,Wind SpeedMPH,Gust SpeedMPH,PrecipitationIn,Events,Conditions,WindDirDegrees,DateUTC
12:15 AM,29.1,27.9,95,29.88,2.0,North,9.2,-,N/A,,Overcast,360,2013-02-26 06:15:00
12:35 AM,28.9,27.7,95,29.88,1.8,North,8.1,-,N/A,,Overcast,350,2013-02-26 06:35:00
12:55 AM,28.9,27.5,94,29.87,1.8,North,11.5,17.3,N/A,,Overcast,350,2013-02-26 06:55:00
1:15 AM,28.8,27.5,95,29.85,1.8,NNW,10.4,17.3,N/A,,Overcast,340,2013-02-26 07:15:00
1:35 AM,28.4,27.5,96,29.85,1.8,North,11.5,18.4,N/A,,Overcast,350,2013-02-26 07:35:00
1:55 AM,28.4,27.3,96,29.85,1.8,North,11.5,16.1,N/A,,Overcast,350,2013-02-26 07:55:00
2:15 AM,28.2,27.1,96,29.86,1.8,North,9.2,-,N/A,,Overcast,360,2013-02-26 08:15:00
2:35 AM,28.4,27.3,96,29.84,1.8,North,12.7,18.4,N/A,,Overcast,350,2013-02-26 08:35:00
2:55 AM,28.2,27.1,96,29.83,1.8,NNW,11.5,-,N/A,,Overcast,340,2013-02-26 08:55:00
3:15 AM,28.2,27.0,95,29.82,2.0,North,9.2,-,N/A,,Overcast,350,2013-02-26 09:15:00
3:35 AM,28.0,26.8,95,29.82,2.0,NNW,10.4,-,N/A,,Overcast,340,2013-02-26 09:35:00
3:55 AM,28.0,26.6,94,29.82,2.0,NNW,10.4,16.1,N/A,,Overcast,340,2013-02-26 09:55:00
4:15 AM,28.0,26.6,94,29.81,2.5,NNW,11.5,-,N/A,,Overcast,340,2013-02-26 10:15:00
4:35 AM,28.2,26.6,94,29.82,2.5,NNW,11.5,16.1,N/A,,Overcast,340,2013-02-26 10:35:00
4:55 AM,28.4,26.6,93,29.82,2.5,NNW,11.5,-,N/A,,Overcast,340,2013-02-26 10:55:00
5:15 AM,28.4,26.6,93,29.81,3.0,NNW,10.4,-,N/A,,Overcast,340,2013-02-26 11:15:00
5:35 AM,28.4,26.4,92,29.81,3.0,NNW,12.7,-,N/A,,Overcast,330,2013-02-26 11:35:00
5:55 AM,28.4,26.4,92,29.81,3.0,NNW,10.4,-,N/A,,Overcast,330,2013-02-26 11:55:00
6:15 AM,28.4,26.6,93,29.81,3.0,NNW,12.7,-,N/A,,Overcast,340,2013-02-26 12:15:00
6:35 AM,28.4,26.6,93,29.80,3.0,NNW,13.8,17.3,N/A,,Overcast,330,2013-02-26 12:35:00
6:55 AM,28.6,26.6,92,29.80,3.0,NNW,11.5,18.4,N/A,,Overcast,340,2013-02-26 12:55:00
7:15 AM,28.8,26.6,92,29.80,2.5,NNW,12.7,-,N/A,,Overcast,340,2013-02-26 13:15:00
7:35 AM,28.8,26.6,92,29.81,2.0,NNW,10.4,16.1,N/A,,Overcast,340,2013-02-26 13:35:00
7:55 AM,28.9,26.4,90,29.81,2.0,NNW,11.5,-,N/A,,Overcast,340,2013-02-26 13:55:00
8:15 AM,29.3,26.6,90,29.81,2.5,NNW,10.4,-,N/A,,Overcast,340,2013-02-26 14:15:00
8:35 AM,29.3,26.6,90,29.81,2.5,NNW,13.8,17.3,N/A,,Overcast,340,2013-02-26 14:35:00
8:55 AM,29.7,26.6,88,29.82,2.5,North,9.2,-,N/A,,Overcast,360,2013-02-26 14:55:00
9:15 AM,30.0,26.4,86,29.82,3.0,North,8.1,-,N/A,,Overcast,350,2013-02-26 15:15:00
9:35 AM,30.2,26.6,86,29.81,3.0,NNW,13.8,19.6,N/A,,Overcast,340,2013-02-26 15:35:00
9:55 AM,30.2,26.4,86,29.82,4.0,North,9.2,17.3,N/A,,Overcast,350,2013-02-26 15:55:00
10:15 AM,30.9,26.2,83,29.82,4.0,North,9.2,16.1,N/A,,Haze,360,2013-02-26 16:15:00
10:35 AM,30.2,26.4,86,29.82,1.5,North,10.4,-,N/A,Snow,Light Snow,350,2013-02-26 16:35:00
10:55 AM,30.0,27.1,89,29.81,0.8,NNW,16.1,20.7,N/A,Snow,Light Snow,340,2013-02-26 16:55:00
11:15 AM,30.0,27.3,90,29.81,0.8,NNW,16.1,-,N/A,Snow,Light Snow,340,2013-02-26 17:15:00
11:35 AM,30.2,27.5,90,29.80,1.2,NNW,15.0,20.7,N/A,Snow,Light Snow,330,2013-02-26 17:35:00
11:55 AM,30.2,27.1,88,29.80,1.5,NNW,15.0,20.7,N/A,Snow,Light Snow,340,2013-02-26 17:55:00
12:15 PM,30.7,27.7,88,29.79,1.2,NNW,13.8,19.6,N/A,Snow,Light Snow,330,2013-02-26 18:15:00
12:35 PM,30.7,27.9,89,29.79,1.0,NNW,13.8,19.6,N/A,Snow,Light Snow,330,2013-02-26 18:35:00
12:55 PM,31.1,28.2,89,29.79,1.2,NW,13.8,-,N/A,Snow,Light Snow,320,2013-02-26 18:55:00
1:15 PM,31.3,28.6,90,29.78,1.2,NNW,12.7,-,N/A,Snow,Light Snow,330,2013-02-26 19:15:00
1:35 PM,31.8,28.6,88,29.77,1.5,NNW,13.8,19.6,N/A,Snow,Light Snow,340,2013-02-26 19:35:00
1:55 PM,32.0,28.4,87,29.76,1.8,NNW,15.0,-,N/A,Snow,Light Snow,330,2013-02-26 19:55:00
2:15 PM,32.0,28.9,88,29.75,2.0,NNW,13.8,-,N/A,Snow,Light Snow,330,2013-02-26 20:15:00
2:35 PM,32.0,28.9,88,29.75,2.5,NNW,10.4,18.4,N/A,Snow,Light Snow,330,2013-02-26 20:35:00
2:55 PM,32.0,29.1,89,29.76,2.5,NNW,13.8,19.6,N/A,Snow,Light Snow,340,2013-02-26 20:55:00
3:15 PM,32.2,29.7,90,29.76,1.8,NNW,10.4,-,N/A,Snow,Light Snow,330,2013-02-26 21:15:00
3:35 PM,32.0,29.8,92,29.77,1.5,NNW,11.5,-,N/A,Snow,Light Snow,330,2013-02-26 21:35:00
3:55 PM,32.0,30.2,93,29.77,1.2,NNW,13.8,-,N/A,Snow,Light Snow,330,2013-02-26 21:55:00
4:15 PM,32.0,30.2,93,29.78,1.2,NNW,13.8,-,N/A,Snow,Light Snow,330,2013-02-26 22:15:00
4:35 PM,32.0,30.2,93,29.78,1.2,NNW,11.5,-,N/A,Snow,Light Snow,330,2013-02-26 22:35:00
4:55 PM,32.0,30.2,93,29.79,1.2,NNW,10.4,-,N/A,Snow,Light Snow,330,2013-02-26 22:55:00
5:15 PM,32.0,30.6,94,29.79,1.2,NNW,10.4,-,N/A,Snow,Light Snow,330,2013-02-26 23:15:00
5:35 PM,32.0,30.4,94,29.80,1.2,NNW,9.2,-,N/A,Snow,Light Snow,330,2013-02-26 23:35:00
5:55 PM,32.0,30.2,93,29.81,1.0,NNW,11.5,-,N/A,Snow,Light Snow,330,2013-02-26 23:55:00
6:15 PM,32.0,30.2,93,29.82,1.8,NNW,10.4,-,N/A,Snow,Light Snow,340,2013-02-27 00:15:00
6:35 PM,32.0,30.2,93,29.84,2.0,NNW,10.4,-,N/A,Snow,Light Snow,330,2013-02-27 00:35:00
6:55 PM,32.0,30.2,93,29.84,2.5,NNW,9.2,-,N/A,Snow,Light Snow,330,2013-02-27 00:55:00
7:15 PM,32.0,30.2,93,29.84,1.8,NNW,9.2,-,N/A,Snow,Light Snow,330,2013-02-27 01:15:00
7:35 PM,32.0,30.2,93,29.84,1.8,NNW,10.4,-,N/A,Snow,Light Snow,330,2013-02-27 01:35:00
7:55 PM,31.8,30.2,94,29.85,2.0,NNW,9.2,-,N/A,Snow,Light Snow,340,2013-02-27 01:55:00
8:15 PM,31.8,30.2,94,29.86,2.5,North,9.2,-,N/A,Snow,Light Snow,350,2013-02-27 02:15:00
8:35 PM,31.6,29.8,93,29.86,3.0,NNW,9.2,-,N/A,Snow,Light Snow,340,2013-02-27 02:35:00
8:55 PM,31.6,29.3,91,29.87,3.0,NNW,10.4,-,N/A,Snow,Light Snow,340,2013-02-27 02:55:00
9:15 PM,31.5,29.1,91,29.88,4.0,NNW,8.1,-,N/A,Snow,Light Snow,340,2013-02-27 03:15:00
9:35 PM,31.6,28.8,89,29.88,5.0,NW,9.2,-,N/A,Snow,Light Snow,320,2013-02-27 03:35:00
9:55 PM,31.6,28.2,87,29.88,5.0,NNW,10.4,-,N/A,,Overcast,330,2013-02-27 03:55:00
10:15 PM,31.1,27.9,88,29.89,5.0,NNW,10.4,-,N/A,,Overcast,330,2013-02-27 04:15:00
10:55 PM,30.9,27.3,86,29.89,5.0,NNW,11.5,-,N/A,,Overcast,330,2013-02-27 04:55:00
11:15 PM,30.6,27.1,87,29.89,5.0,NNW,9.2,-,N/A,,Overcast,330,2013-02-27 05:15:00
11:35 PM,30.2,26.6,86,29.89,5.0,NW,11.5,-,N/A,,Overcast,320,2013-02-27 05:35:00
11:55 PM,30.0,26.6,87,29.89,5.0,NW,11.5,18.4,N/A,,Scattered Clouds,320,2013-02-27 05:55:00